DAUL/LOO METAR and TAF weather

Enter ICAO airport designator
Station Type Date Time Source
DAUL METAR 2020/06/06 00:00 UTC NOAA

DAUL 060000Z 00000KT CAVOK 22/08 Q1016


Station Type Date Time Source
DAUL Decoded METAR 2020/06/06 00:00 UTC NOAA

Laghouat, Algeria (DAUL) 33-46N 002-56E 765M
Jun 05, 2020 - 08:00 PM EDT / 2020.06.06 0000 UTC
Wind: Calm:0
Visibility: greater than 7 mile(s):0
Temperature: 71 F (22 C)
Dew Point: 46 F (8 C)
Relative Humidity: 40%
Pressure (altimeter): 30.00 in. Hg (1016 hPa)
ob: DAUL 060000Z 00000KT CAVOK 22/08 Q1016
cycle: 0

Station Type Date Time Source
DAUL TAF 2017/11/09 18:03 UTC NOAA

TAF DAUL 091700Z 0918/1009 02012KT 9999 SCT030 SCT100 PROB40
TEMPO 0918/0924 35020G30KT 4000 -TSRA FEW030CB

Example: see airport list